sensor_id;sensor_type;location;lat;lon;timestamp;P1;durP1;ratioP1;P2;durP2;ratioP2
84303;SDS011;74469;52.520;16.998;2024-03-02T00:00:40;59.50;;;30.10;;
84303;SDS011;74469;52.520;16.998;2024-03-02T00:06:22;53.50;;;27.60;;
84303;SDS011;74469;52.520;16.998;2024-03-02T00:11:24;58.30;;;29.10;;
84303;SDS011;74469;52.520;16.998;2024-03-02T00:16:30;54.10;;;28.30;;
84303;SDS011;74469;52.520;16.998;2024-03-02T00:21:34;50.00;;;29.00;;
84303;SDS011;74469;52.520;16.998;2024-03-02T00:26:36;60.50;;;30.00;;
84303;SDS011;74469;52.520;16.998;2024-03-02T00:31:39;55.50;;;30.60;;
84303;SDS011;74469;52.520;16.998;2024-03-02T00:36:42;56.10;;;27.90;;
84303;SDS011;74469;52.520;16.998;2024-03-02T00:41:46;53.60;;;26.30;;
84303;SDS011;74469;52.520;16.998;2024-03-02T00:46:50;59.10;;;28.50;;
84303;SDS011;74469;52.520;16.998;2024-03-02T00:51:53;48.10;;;23.60;;
84303;SDS011;74469;52.520;16.998;2024-03-02T00:56:56;57.70;;;26.40;;
84303;SDS011;74469;52.520;16.998;2024-03-02T01:02:01;61.60;;;26.60;;
84303;SDS011;74469;52.520;16.998;2024-03-02T01:07:04;53.80;;;29.60;;
84303;SDS011;74469;52.520;16.998;2024-03-02T01:12:07;52.50;;;26.30;;
84303;SDS011;74469;52.520;16.998;2024-03-02T01:17:09;49.00;;;20.90;;
84303;SDS011;74469;52.520;16.998;2024-03-02T01:22:12;63.00;;;32.10;;
84303;SDS011;74469;52.520;16.998;2024-03-02T01:27:15;50.40;;;25.20;;
84303;SDS011;74469;52.520;16.998;2024-03-02T01:32:17;53.30;;;21.40;;
84303;SDS011;74469;52.520;16.998;2024-03-02T01:37:20;55.40;;;27.30;;
84303;SDS011;74469;52.520;16.998;2024-03-02T01:42:23;57.80;;;28.00;;
84303;SDS011;74469;52.520;16.998;2024-03-02T01:47:26;59.00;;;28.20;;
84303;SDS011;74469;52.520;16.998;2024-03-02T01:52:28;43.60;;;19.30;;
84303;SDS011;74469;52.520;16.998;2024-03-02T01:57:32;54.90;;;25.00;;
84303;SDS011;74469;52.520;16.998;2024-03-02T02:02:35;49.20;;;23.70;;
84303;SDS011;74469;52.520;16.998;2024-03-02T02:07:38;52.90;;;24.10;;
84303;SDS011;74469;52.520;16.998;2024-03-02T02:12:41;53.20;;;26.60;;
84303;SDS011;74469;52.520;16.998;2024-03-02T02:17:44;51.90;;;24.30;;
84303;SDS011;74469;52.520;16.998;2024-03-02T02:22:56;61.60;;;25.30;;
84303;SDS011;74469;52.520;16.998;2024-03-02T02:28:02;57.90;;;28.10;;
84303;SDS011;74469;52.520;16.998;2024-03-02T02:33:05;50.90;;;25.10;;
84303;SDS011;74469;52.520;16.998;2024-03-02T02:38:08;53.50;;;27.40;;
84303;SDS011;74469;52.520;16.998;2024-03-02T02:43:11;55.00;;;27.10;;
84303;SDS011;74469;52.520;16.998;2024-03-02T02:48:13;46.40;;;24.00;;
84303;SDS011;74469;52.520;16.998;2024-03-02T02:53:16;51.30;;;24.10;;
84303;SDS011;74469;52.520;16.998;2024-03-02T02:58:19;43.50;;;22.80;;
84303;SDS011;74469;52.520;16.998;2024-03-02T03:03:21;45.80;;;23.00;;
84303;SDS011;74469;52.520;16.998;2024-03-02T03:08:24;52.00;;;24.00;;
84303;SDS011;74469;52.520;16.998;2024-03-02T03:13:27;40.00;;;20.20;;
84303;SDS011;74469;52.520;16.998;2024-03-02T03:18:29;49.50;;;24.00;;
84303;SDS011;74469;52.520;16.998;2024-03-02T03:23:32;52.00;;;25.10;;
84303;SDS011;74469;52.520;16.998;2024-03-02T03:28:35;52.40;;;25.10;;
84303;SDS011;74469;52.520;16.998;2024-03-02T03:33:38;40.30;;;21.10;;
84303;SDS011;74469;52.520;16.998;2024-03-02T03:38:40;43.00;;;22.50;;
84303;SDS011;74469;52.520;16.998;2024-03-02T03:43:43;40.20;;;21.20;;
84303;SDS011;74469;52.520;16.998;2024-03-02T03:48:46;39.50;;;21.20;;
84303;SDS011;74469;52.520;16.998;2024-03-02T03:53:48;39.80;;;19.60;;
84303;SDS011;74469;52.520;16.998;2024-03-02T03:58:51;41.80;;;21.60;;
84303;SDS011;74469;52.520;16.998;2024-03-02T04:03:54;39.50;;;18.50;;
84303;SDS011;74469;52.520;16.998;2024-03-02T04:08:57;38.70;;;19.50;;
84303;SDS011;74469;52.520;16.998;2024-03-02T04:14:00;39.00;;;21.40;;
84303;SDS011;74469;52.520;16.998;2024-03-02T04:19:03;47.90;;;21.20;;
84303;SDS011;74469;52.520;16.998;2024-03-02T04:24:06;38.70;;;17.80;;
84303;SDS011;74469;52.520;16.998;2024-03-02T04:29:09;44.00;;;20.90;;
84303;SDS011;74469;52.520;16.998;2024-03-02T04:34:11;37.10;;;17.20;;
84303;SDS011;74469;52.520;16.998;2024-03-02T04:39:14;46.30;;;22.30;;
84303;SDS011;74469;52.520;16.998;2024-03-02T04:44:16;37.60;;;20.20;;
84303;SDS011;74469;52.520;16.998;2024-03-02T04:49:19;40.60;;;20.50;;
84303;SDS011;74469;52.520;16.998;2024-03-02T04:54:22;43.40;;;20.80;;
84303;SDS011;74469;52.520;16.998;2024-03-02T05:04:38;39.00;;;17.80;;
84303;SDS011;74469;52.520;16.998;2024-03-02T05:09:41;42.70;;;18.90;;
84303;SDS011;74469;52.520;16.998;2024-03-02T05:14:45;47.70;;;23.20;;
84303;SDS011;74469;52.520;16.998;2024-03-02T05:19:48;41.30;;;21.60;;
84303;SDS011;74469;52.520;16.998;2024-03-02T05:24:50;45.50;;;21.70;;
84303;SDS011;74469;52.520;16.998;2024-03-02T05:29:53;41.50;;;21.90;;
84303;SDS011;74469;52.520;16.998;2024-03-02T05:34:56;37.60;;;19.30;;
84303;SDS011;74469;52.520;16.998;2024-03-02T05:39:59;39.30;;;18.70;;
84303;SDS011;74469;52.520;16.998;2024-03-02T05:45:01;35.50;;;18.30;;
84303;SDS011;74469;52.520;16.998;2024-03-02T05:50:04;49.70;;;20.80;;
84303;SDS011;74469;52.520;16.998;2024-03-02T05:55:07;46.10;;;22.50;;
84303;SDS011;74469;52.520;16.998;2024-03-02T06:00:10;46.50;;;20.20;;
84303;SDS011;74469;52.520;16.998;2024-03-02T06:05:14;47.30;;;22.00;;
84303;SDS011;74469;52.520;16.998;2024-03-02T06:10:17;37.40;;;18.20;;
84303;SDS011;74469;52.520;16.998;2024-03-02T06:15:20;42.80;;;21.60;;
84303;SDS011;74469;52.520;16.998;2024-03-02T06:20:23;34.30;;;19.10;;
84303;SDS011;74469;52.520;16.998;2024-03-02T06:25:25;42.90;;;20.60;;
84303;SDS011;74469;52.520;16.998;2024-03-02T06:30:28;46.40;;;22.90;;
84303;SDS011;74469;52.520;16.998;2024-03-02T06:35:32;37.90;;;18.70;;
84303;SDS011;74469;52.520;16.998;2024-03-02T06:40:34;41.10;;;20.80;;
84303;SDS011;74469;52.520;16.998;2024-03-02T06:45:37;39.80;;;19.60;;
84303;SDS011;74469;52.520;16.998;2024-03-02T06:50:40;41.00;;;20.60;;
84303;SDS011;74469;52.520;16.998;2024-03-02T06:55:46;35.40;;;17.80;;
84303;SDS011;74469;52.520;16.998;2024-03-02T07:06:17;34.60;;;18.00;;
84303;SDS011;74469;52.520;16.998;2024-03-02T07:11:20;47.10;;;22.10;;
84303;SDS011;74469;52.520;16.998;2024-03-02T07:16:22;38.90;;;19.90;;
84303;SDS011;74469;52.520;16.998;2024-03-02T07:21:35;38.00;;;18.80;;
84303;SDS011;74469;52.520;16.998;2024-03-02T07:26:38;41.10;;;21.40;;
84303;SDS011;74469;52.520;16.998;2024-03-02T07:31:41;38.80;;;20.10;;
84303;SDS011;74469;52.520;16.998;2024-03-02T07:36:43;41.40;;;20.50;;
84303;SDS011;74469;52.520;16.998;2024-03-02T07:41:46;36.50;;;17.40;;
84303;SDS011;74469;52.520;16.998;2024-03-02T07:46:49;35.00;;;19.30;;
84303;SDS011;74469;52.520;16.998;2024-03-02T07:51:55;35.50;;;20.10;;
84303;SDS011;74469;52.520;16.998;2024-03-02T07:56:57;34.60;;;18.60;;
84303;SDS011;74469;52.520;16.998;2024-03-02T08:02:01;36.50;;;19.10;;
84303;SDS011;74469;52.520;16.998;2024-03-02T08:07:04;35.60;;;20.20;;
84303;SDS011;74469;52.520;16.998;2024-03-02T08:12:07;32.40;;;18.30;;
84303;SDS011;74469;52.520;16.998;2024-03-02T08:17:09;40.90;;;20.40;;
84303;SDS011;74469;52.520;16.998;2024-03-02T08:22:16;28.40;;;17.90;;
84303;SDS011;74469;52.520;16.998;2024-03-02T08:27:19;30.70;;;18.50;;
84303;SDS011;74469;52.520;16.998;2024-03-02T08:32:22;30.90;;;17.60;;
84303;SDS011;74469;52.520;16.998;2024-03-02T08:37:25;30.10;;;18.50;;
84303;SDS011;74469;52.520;16.998;2024-03-02T08:42:27;28.40;;;16.30;;
84303;SDS011;74469;52.520;16.998;2024-03-02T08:47:30;30.50;;;19.20;;
84303;SDS011;74469;52.520;16.998;2024-03-02T08:52:33;32.10;;;19.10;;
84303;SDS011;74469;52.520;16.998;2024-03-02T08:57:35;37.60;;;21.60;;
84303;SDS011;74469;52.520;16.998;2024-03-02T09:08:20;34.60;;;19.00;;
84303;SDS011;74469;52.520;16.998;2024-03-02T09:13:23;30.20;;;19.20;;
84303;SDS011;74469;52.520;16.998;2024-03-02T09:18:26;38.50;;;21.20;;
84303;SDS011;74469;52.520;16.998;2024-03-02T09:23:29;30.10;;;18.50;;
84303;SDS011;74469;52.520;16.998;2024-03-02T09:28:32;33.30;;;19.10;;
84303;SDS011;74469;52.520;16.998;2024-03-02T09:33:35;35.10;;;19.60;;
84303;SDS011;74469;52.520;16.998;2024-03-02T09:38:37;25.90;;;15.50;;
84303;SDS011;74469;52.520;16.998;2024-03-02T09:43:40;28.90;;;18.10;;
84303;SDS011;74469;52.520;16.998;2024-03-02T09:48:44;30.40;;;18.20;;
84303;SDS011;74469;52.520;16.998;2024-03-02T09:53:47;24.70;;;16.50;;
84303;SDS011;74469;52.520;16.998;2024-03-02T09:58:50;32.60;;;19.30;;
84303;SDS011;74469;52.520;16.998;2024-03-02T10:03:54;28.60;;;18.70;;
84303;SDS011;74469;52.520;16.998;2024-03-02T10:08:57;32.00;;;19.40;;
84303;SDS011;74469;52.520;16.998;2024-03-02T10:14:07;25.30;;;16.10;;
84303;SDS011;74469;52.520;16.998;2024-03-02T10:19:21;27.90;;;17.20;;
84303;SDS011;74469;52.520;16.998;2024-03-02T10:24:25;30.90;;;18.70;;
84303;SDS011;74469;52.520;16.998;2024-03-02T10:29:29;30.10;;;19.00;;
84303;SDS011;74469;52.520;16.998;2024-03-02T10:34:32;30.60;;;19.20;;
84303;SDS011;74469;52.520;16.998;2024-03-02T10:39:35;28.10;;;17.30;;
84303;SDS011;74469;52.520;16.998;2024-03-02T10:44:38;33.10;;;20.40;;
84303;SDS011;74469;52.520;16.998;2024-03-02T10:49:41;30.00;;;19.60;;
84303;SDS011;74469;52.520;16.998;2024-03-02T10:54:45;36.60;;;18.90;;
84303;SDS011;74469;52.520;16.998;2024-03-02T10:59:52;34.20;;;19.50;;
84303;SDS011;74469;52.520;16.998;2024-03-02T11:04:55;29.20;;;18.00;;
84303;SDS011;74469;52.520;16.998;2024-03-02T11:10:00;31.00;;;18.60;;
84303;SDS011;74469;52.520;16.998;2024-03-02T11:15:10;26.40;;;18.90;;
84303;SDS011;74469;52.520;16.998;2024-03-02T11:20:14;31.70;;;19.00;;
84303;SDS011;74469;52.520;16.998;2024-03-02T11:25:27;33.70;;;20.90;;
84303;SDS011;74469;52.520;16.998;2024-03-02T11:35:36;31.20;;;18.90;;
84303;SDS011;74469;52.520;16.998;2024-03-02T11:40:40;31.00;;;19.70;;
84303;SDS011;74469;52.520;16.998;2024-03-02T11:45:43;29.20;;;20.20;;
84303;SDS011;74469;52.520;16.998;2024-03-02T11:50:46;27.90;;;17.80;;
84303;SDS011;74469;52.520;16.998;2024-03-02T11:55:51;32.70;;;21.20;;
84303;SDS011;74469;52.520;16.998;2024-03-02T12:00:55;25.00;;;18.00;;
84303;SDS011;74469;52.520;16.998;2024-03-02T12:05:58;27.50;;;18.80;;
84303;SDS011;74469;52.520;16.998;2024-03-02T12:11:01;30.80;;;19.50;;
84303;SDS011;74469;52.520;16.998;2024-03-02T12:16:04;29.40;;;18.80;;
84303;SDS011;74469;52.520;16.998;2024-03-02T12:21:08;29.10;;;17.30;;
84303;SDS011;74469;52.520;16.998;2024-03-02T12:26:11;32.90;;;20.80;;
84303;SDS011;74469;52.520;16.998;2024-03-02T12:31:13;29.00;;;19.60;;
84303;SDS011;74469;52.520;16.998;2024-03-02T12:36:16;29.60;;;19.50;;
84303;SDS011;74469;52.520;16.998;2024-03-02T12:41:19;27.80;;;18.00;;
84303;SDS011;74469;52.520;16.998;2024-03-02T12:46:21;25.90;;;17.60;;
84303;SDS011;74469;52.520;16.998;2024-03-02T12:51:24;31.00;;;19.40;;
84303;SDS011;74469;52.520;16.998;2024-03-02T12:56:27;27.10;;;17.50;;
84303;SDS011;74469;52.520;16.998;2024-03-02T13:01:30;30.20;;;17.80;;
84303;SDS011;74469;52.520;16.998;2024-03-02T13:06:34;25.60;;;18.20;;
84303;SDS011;74469;52.520;16.998;2024-03-02T15:17:12;24.20;;;15.80;;
84303;SDS011;74469;52.520;16.998;2024-03-02T15:22:18;33.20;;;18.70;;
84303;SDS011;74469;52.520;16.998;2024-03-02T15:27:21;28.20;;;16.20;;
84303;SDS011;74469;52.520;16.998;2024-03-02T15:32:23;28.90;;;17.00;;
84303;SDS011;74469;52.520;16.998;2024-03-02T15:37:28;27.60;;;17.50;;
84303;SDS011;74469;52.520;16.998;2024-03-02T15:42:32;22.90;;;14.60;;
84303;SDS011;74469;52.520;16.998;2024-03-02T15:47:36;27.90;;;17.50;;
84303;SDS011;74469;52.520;16.998;2024-03-02T15:52:39;32.10;;;20.20;;
84303;SDS011;74469;52.520;16.998;2024-03-02T15:57:41;26.90;;;15.90;;
84303;SDS011;74469;52.520;16.998;2024-03-02T16:02:44;30.10;;;18.40;;
84303;SDS011;74469;52.520;16.998;2024-03-02T16:07:47;31.60;;;17.40;;
84303;SDS011;74469;52.520;16.998;2024-03-02T16:12:50;30.60;;;18.30;;
84303;SDS011;74469;52.520;16.998;2024-03-02T16:17:54;32.20;;;18.00;;
84303;SDS011;74469;52.520;16.998;2024-03-02T16:22:57;23.70;;;15.60;;
84303;SDS011;74469;52.520;16.998;2024-03-02T16:27:59;27.20;;;17.70;;
84303;SDS011;74469;52.520;16.998;2024-03-02T16:33:04;34.20;;;20.10;;
84303;SDS011;74469;52.520;16.998;2024-03-02T16:38:07;25.20;;;16.50;;
84303;SDS011;74469;52.520;16.998;2024-03-02T16:43:10;31.90;;;19.50;;
84303;SDS011;74469;52.520;16.998;2024-03-02T16:48:13;34.10;;;19.80;;
84303;SDS011;74469;52.520;16.998;2024-03-02T16:53:16;33.30;;;21.70;;
84303;SDS011;74469;52.520;16.998;2024-03-02T16:58:19;38.30;;;22.40;;
84303;SDS011;74469;52.520;16.998;2024-03-02T17:03:22;31.40;;;19.60;;
84303;SDS011;74469;52.520;16.998;2024-03-02T17:08:25;34.40;;;19.50;;
84303;SDS011;74469;52.520;16.998;2024-03-02T17:18:41;40.20;;;20.70;;
84303;SDS011;74469;52.520;16.998;2024-03-02T17:23:44;30.30;;;18.40;;
84303;SDS011;74469;52.520;16.998;2024-03-02T17:28:47;38.50;;;22.50;;
84303;SDS011;74469;52.520;16.998;2024-03-02T17:33:50;39.70;;;21.30;;
84303;SDS011;74469;52.520;16.998;2024-03-02T17:38:52;41.00;;;24.10;;
84303;SDS011;74469;52.520;16.998;2024-03-02T17:43:55;42.50;;;23.30;;
84303;SDS011;74469;52.520;16.998;2024-03-02T17:48:58;47.00;;;23.30;;
84303;SDS011;74469;52.520;16.998;2024-03-02T17:54:01;40.80;;;22.80;;
84303;SDS011;74469;52.520;16.998;2024-03-02T17:59:03;34.70;;;18.20;;
84303;SDS011;74469;52.520;16.998;2024-03-02T18:04:06;39.00;;;21.80;;
84303;SDS011;74469;52.520;16.998;2024-03-02T18:09:09;38.70;;;20.50;;
84303;SDS011;74469;52.520;16.998;2024-03-02T18:14:11;38.90;;;20.30;;
84303;SDS011;74469;52.520;16.998;2024-03-02T18:19:14;39.40;;;21.40;;
84303;SDS011;74469;52.520;16.998;2024-03-02T18:24:17;40.40;;;20.80;;
84303;SDS011;74469;52.520;16.998;2024-03-02T18:29:20;38.80;;;19.50;;
84303;SDS011;74469;52.520;16.998;2024-03-02T18:34:23;41.70;;;21.10;;
84303;SDS011;74469;52.520;16.998;2024-03-02T18:39:26;35.70;;;20.20;;
84303;SDS011;74469;52.520;16.998;2024-03-02T18:44:29;40.20;;;21.70;;
84303;SDS011;74469;52.520;16.998;2024-03-02T18:49:31;42.50;;;21.90;;
84303;SDS011;74469;52.520;16.998;2024-03-02T18:54:34;43.20;;;21.00;;
84303;SDS011;74469;52.520;16.998;2024-03-02T18:59:37;46.20;;;24.10;;
84303;SDS011;74469;52.520;16.998;2024-03-02T19:04:40;46.50;;;22.10;;
84303;SDS011;74469;52.520;16.998;2024-03-02T19:09:43;44.80;;;23.50;;
84303;SDS011;74469;52.520;16.998;2024-03-02T19:14:46;38.50;;;19.70;;
84303;SDS011;74469;52.520;16.998;2024-03-02T19:19:49;45.10;;;25.10;;
84303;SDS011;74469;52.520;16.998;2024-03-02T19:24:52;40.00;;;19.50;;
84303;SDS011;74469;52.520;16.998;2024-03-02T19:29:56;51.40;;;24.10;;
84303;SDS011;74469;52.520;16.998;2024-03-02T19:34:58;34.30;;;19.00;;
84303;SDS011;74469;52.520;16.998;2024-03-02T19:40:02;39.60;;;20.30;;
84303;SDS011;74469;52.520;16.998;2024-03-02T19:45:07;45.30;;;21.40;;
84303;SDS011;74469;52.520;16.998;2024-03-02T19:50:10;40.70;;;21.40;;
84303;SDS011;74469;52.520;16.998;2024-03-02T19:55:16;41.10;;;21.60;;
84303;SDS011;74469;52.520;16.998;2024-03-02T20:00:22;44.00;;;21.90;;
84303;SDS011;74469;52.520;16.998;2024-03-02T20:05:25;37.70;;;19.00;;
84303;SDS011;74469;52.520;16.998;2024-03-02T20:10:28;38.50;;;19.30;;
84303;SDS011;74469;52.520;16.998;2024-03-02T20:15:31;39.70;;;19.40;;
84303;SDS011;74469;52.520;16.998;2024-03-02T20:20:34;41.50;;;21.20;;
84303;SDS011;74469;52.520;16.998;2024-03-02T20:25:37;48.70;;;25.60;;
84303;SDS011;74469;52.520;16.998;2024-03-02T20:30:40;36.70;;;18.70;;
84303;SDS011;74469;52.520;16.998;2024-03-02T20:35:43;39.30;;;21.60;;
84303;SDS011;74469;52.520;16.998;2024-03-02T20:40:46;49.10;;;24.90;;
84303;SDS011;74469;52.520;16.998;2024-03-02T20:45:53;38.00;;;20.70;;
84303;SDS011;74469;52.520;16.998;2024-03-02T20:50:55;42.00;;;22.10;;
84303;SDS011;74469;52.520;16.998;2024-03-02T20:55:59;44.20;;;22.80;;
84303;SDS011;74469;52.520;16.998;2024-03-02T21:01:02;41.50;;;21.40;;
84303;SDS011;74469;52.520;16.998;2024-03-02T21:06:06;43.40;;;23.30;;
84303;SDS011;74469;52.520;16.998;2024-03-02T21:11:09;39.30;;;20.30;;
84303;SDS011;74469;52.520;16.998;2024-03-02T21:16:11;53.20;;;27.00;;
84303;SDS011;74469;52.520;16.998;2024-03-02T21:21:14;38.70;;;19.60;;
84303;SDS011;74469;52.520;16.998;2024-03-02T21:26:17;36.90;;;20.80;;
84303;SDS011;74469;52.520;16.998;2024-03-02T21:31:20;47.00;;;22.60;;
84303;SDS011;74469;52.520;16.998;2024-03-02T21:36:23;47.80;;;23.40;;
84303;SDS011;74469;52.520;16.998;2024-03-02T21:41:25;45.10;;;23.40;;
84303;SDS011;74469;52.520;16.998;2024-03-02T21:46:28;55.90;;;26.70;;
84303;SDS011;74469;52.520;16.998;2024-03-02T21:51:31;51.80;;;24.10;;
84303;SDS011;74469;52.520;16.998;2024-03-02T21:56:33;51.10;;;23.10;;
84303;SDS011;74469;52.520;16.998;2024-03-02T22:01:36;44.50;;;22.70;;
84303;SDS011;74469;52.520;16.998;2024-03-02T22:06:39;43.30;;;20.90;;
84303;SDS011;74469;52.520;16.998;2024-03-02T22:11:42;47.30;;;24.30;;
84303;SDS011;74469;52.520;16.998;2024-03-02T22:16:45;40.80;;;20.90;;
84303;SDS011;74469;52.520;16.998;2024-03-02T22:21:48;44.60;;;22.50;;
84303;SDS011;74469;52.520;16.998;2024-03-02T22:26:52;45.60;;;21.00;;
84303;SDS011;74469;52.520;16.998;2024-03-02T22:31:55;48.10;;;21.00;;
84303;SDS011;74469;52.520;16.998;2024-03-02T22:36:57;48.50;;;24.60;;
84303;SDS011;74469;52.520;16.998;2024-03-02T22:42:00;44.20;;;21.60;;
84303;SDS011;74469;52.520;16.998;2024-03-02T22:47:03;45.30;;;25.00;;
84303;SDS011;74469;52.520;16.998;2024-03-02T22:52:06;44.30;;;20.80;;
84303;SDS011;74469;52.520;16.998;2024-03-02T22:57:08;56.20;;;26.10;;
84303;SDS011;74469;52.520;16.998;2024-03-02T23:02:19;60.90;;;29.60;;
84303;SDS011;74469;52.520;16.998;2024-03-02T23:07:22;48.60;;;23.20;;
84303;SDS011;74469;52.520;16.998;2024-03-02T23:12:25;37.00;;;20.00;;
84303;SDS011;74469;52.520;16.998;2024-03-02T23:17:28;43.80;;;21.30;;
84303;SDS011;74469;52.520;16.998;2024-03-02T23:27:58;40.70;;;19.60;;
84303;SDS011;74469;52.520;16.998;2024-03-02T23:33:01;38.90;;;20.90;;
84303;SDS011;74469;52.520;16.998;2024-03-02T23:38:04;52.40;;;25.40;;
84303;SDS011;74469;52.520;16.998;2024-03-02T23:43:07;45.10;;;23.20;;
84303;SDS011;74469;52.520;16.998;2024-03-02T23:48:11;45.20;;;23.40;;
84303;SDS011;74469;52.520;16.998;2024-03-02T23:53:13;57.70;;;26.80;;
84303;SDS011;74469;52.520;16.998;2024-03-02T23:58:16;44.20;;;22.60;;
